CDT,Max TemperatureF,Mean TemperatureF,Min TemperatureF,Max Dew PointF,MeanDew PointF,Min DewpointF,Max Humidity, Mean Humidity, Min Humidity, Max Sea Level PressureIn, Mean Sea Level PressureIn, Min Sea Level PressureIn, Max VisibilityMiles, Mean VisibilityMiles, Min VisibilityMiles, Max Wind SpeedMPH, Mean Wind SpeedMPH, Max Gust SpeedMPH,PrecipitationIn, CloudCover, Events, WindDirDegrees
2013-10-1,87,68,49,63,56,48,97,67,37,29.95,29.90,29.83,10,9,2,15,5,22,0.00,0,,185
2013-10-2,84,69,54,69,59,54,100,76,51,30.00,29.96,29.86,10,5,0,14,6,26,0.00,2,Fog,171
2013-10-3,84,74,63,70,65,61,90,76,62,29.92,29.82,29.69,10,8,2,24,10,29,0.64,6,Rain-Thunderstorm,156
2013-10-4,89,74,59,70,66,57,100,72,44,29.91,29.78,29.68,10,9,0,46,11,61,0.84,5,Fog-Rain-Thunderstorm,185
2013-10-5,60,52,44,49,36,33,71,54,36,30.01,29.94,29.89,10,10,10,21,10,26,0.00,4,,274
2013-10-6,57,49,41,45,40,34,92,74,55,30.01,29.90,29.83,10,10,10,22,12,29,T,7,Rain,288
2013-10-7,75,57,38,46,41,36,92,60,27,30.14,30.07,30.01,10,10,10,14,4,17,0.00,0,,215
2013-10-8,77,59,40,48,45,38,93,61,29,30.10,30.05,29.99,10,10,10,23,9,29,0.00,0,,168
2013-10-9,78,60,42,50,47,42,93,63,33,30.09,30.04,30.01,10,10,10,16,8,22,0.00,0,,155
2013-10-10,80,64,48,55,50,45,93,66,39,30.06,29.98,29.86,10,10,10,21,8,25,0.00,0,,148
2013-10-11,76,66,56,63,59,52,87,76,64,29.86,29.80,29.74,10,9,0,33,11,43,0.56,5,Fog-Rain-Thunderstorm,187
2013-10-12,71,56,40,50,41,31,96,60,23,30.28,30.11,29.90,10,10,5,16,6,23,0.00,0,,331
2013-10-13,71,54,36,43,37,33,100,63,26,30.43,30.35,30.30,10,7,1,15,4,18,0.00,0,,90
2013-10-14,70,58,46,60,47,34,87,63,39,30.30,30.03,29.84,10,9,2,24,12,45,0.21,5,Rain,149
2013-10-15,61,54,46,61,44,37,86,65,44,30.09,29.97,29.83,10,10,6,23,12,30,0.04,5,Rain,280
2013-10-16,59,52,45,43,39,37,83,64,44,30.10,30.06,29.99,10,10,10,16,7,20,0.00,6,,308
2013-10-17,68,53,38,43,38,33,92,61,29,30.03,29.96,29.89,10,10,7,20,8,24,0.00,1,,251
2013-10-18,48,42,35,36,35,33,92,76,60,30.16,30.11,30.04,10,10,10,17,7,23,0.00,6,,268
2013-10-19,65,48,31,37,34,30,96,63,30,30.08,29.98,29.87,10,9,5,21,7,26,0.00,2,,209
2013-10-20,68,53,37,44,39,36,92,63,34,29.97,29.84,29.79,10,10,7,22,7,48,T,3,Rain,242
2013-10-21,56,45,34,38,32,28,85,60,35,30.14,30.07,30.00,10,10,10,15,5,20,0.00,1,,308
2013-10-22,59,46,32,45,37,31,89,68,46,30.13,29.99,29.90,10,10,10,28,10,35,T,5,,311
2013-10-23,52,39,25,36,31,24,92,68,44,30.21,30.15,30.06,10,8,0,12,4,15,0.00,4,Fog,167
2013-10-24,52,39,25,35,27,22,92,62,32,30.47,30.37,30.21,10,10,9,18,7,25,0.00,1,,345
2013-10-25,59,40,21,31,24,19,100,64,28,30.49,30.40,30.15,10,5,0,18,7,25,0.00,0,Fog,197
2013-10-26,60,44,27,38,31,26,89,61,33,30.21,30.15,30.07,10,10,10,18,7,26,0.00,0,,305
2013-10-27,66,45,24,34,28,23,100,64,27,30.18,30.08,29.93,10,4,0,17,5,23,0.00,0,Fog,180
2013-10-28,70,50,30,48,37,27,85,62,39,30.17,30.10,30.01,10,10,10,14,3,20,0.00,0,,108
2013-10-29,61,55,49,61,53,36,100,75,50,30.15,30.01,29.94,10,5,1,15,7,21,0.53,8,Rain-Thunderstorm,126
2013-10-30,66,59,51,63,60,52,100,95,90,29.97,29.83,29.71,10,4,0,17,5,22,2.52,8,Fog-Rain-Thunderstorm,196
2013-10-31,54,50,45,49,44,38,93,80,66,29.73,29.63,29.56,10,6,2,13,8,17,0.33,6,Rain,315